Time;durP1;ratioP1;P1;durP2;ratioP2;P2;SDS_P1;SDS_P2;PMS_P1;PMS_P2;Temp;Humidity;BMP_temperature;BMP_pressure;BME280_temperature;BME280_humidity;BME280_pressure;Samples;Min_cycle;Max_cycle;Signal;HPM_P1;HPM_P2
2022/04/26 03:37:44;;;;;;;6.90;4.93;;;22.80;99.90;;;;;;5091765;28;20031;-52
2022/04/26 03:40:10;;;;;;;6.28;4.38;;;22.80;99.90;;;;;;5091236;28;20055;-53
2022/04/26 03:42:36;;;;;;;5.95;4.68;;;22.80;99.90;;;;;;5090045;28;20027;-53
2022/04/26 03:45:20;;;;;;;8.32;5.15;;;22.80;99.90;;;;;;5091457;28;20032;-53
2022/04/26 03:47:46;;;;;;;7.10;4.72;;;22.80;99.90;;;;;;5093454;28;20146;-52
2022/04/26 03:50:12;;;;;;;6.22;4.38;;;22.80;99.90;;;;;;5095326;28;20050;-52
2022/04/26 03:52:41;;;;;;;6.80;4.60;;;22.80;99.90;;;;;;5095181;28;20486;-52
2022/04/26 03:55:07;;;;;;;5.45;4.13;;;22.70;99.90;;;;;;5095155;28;20020;-52
2022/04/26 03:57:33;;;;;;;6.97;4.40;;;22.80;99.90;;;;;;5095234;28;20024;-52
2022/04/26 03:59:59;;;;;;;6.43;4.75;;;22.80;99.90;;;;;;5095589;28;20051;-52
2022/04/26 04:02:24;;;;;;;4.50;3.38;;;22.70;99.90;;;;;;5095402;28;20111;-53
2022/04/26 04:04:50;;;;;;;5.55;4.25;;;22.70;99.90;;;;;;5094806;28;20032;-53
2022/04/26 04:07:16;;;;;;;7.55;4.35;;;22.70;99.90;;;;;;5094804;28;20056;-53
2022/04/26 04:09:42;;;;;;;6.00;4.50;;;22.70;99.90;;;;;;5094805;28;20016;-53
2022/04/26 04:12:08;;;;;;;5.75;4.05;;;22.70;99.90;;;;;;5094846;28;20031;-53
2022/04/26 04:14:34;;;;;;;6.30;4.10;;;22.70;99.90;;;;;;5094961;28;20098;-53
2022/04/26 04:17:00;;;;;;;5.60;4.32;;;22.70;99.90;;;;;;5094860;28;20034;-53
2022/04/26 04:19:27;;;;;;;7.13;4.65;;;22.70;99.90;;;;;;5094549;28;20024;-53
2022/04/26 04:21:53;;;;;;;5.88;4.57;;;22.70;99.90;;;;;;5094723;28;20382;-53
2022/04/26 04:24:19;;;;;;;6.75;4.40;;;22.70;99.90;;;;;;5094260;28;20093;-53
2022/04/26 04:26:46;;;;;;;6.95;4.65;;;22.70;99.90;;;;;;5094442;28;20391;-53
2022/04/26 04:29:12;;;;;;;5.05;3.80;;;22.70;99.90;;;;;;5094401;28;20043;-53
2022/04/26 04:34:23;;;;;;;5.80;4.00;;;22.70;99.90;;;;;;5094507;28;20039;-52
2022/04/26 04:36:49;;;;;;;5.45;4.22;;;22.70;99.90;;;;;;5094289;28;20020;-52
2022/04/26 04:39:19;;;;;;;5.70;3.92;;;22.70;99.90;;;;;;5094277;28;20028;-52
2022/04/26 04:41:46;;;;;;;5.43;3.95;;;22.70;99.90;;;;;;5094138;28;20035;-53
2022/04/26 04:44:12;;;;;;;5.60;3.80;;;22.70;99.90;;;;;;5094155;28;20399;-52
2022/04/26 04:49:23;;;;;;;6.18;3.85;;;22.70;99.90;;;;;;5094291;28;20523;-54
2022/04/26 04:51:48;;;;;;;5.47;4.13;;;22.60;99.90;;;;;;5094080;28;20031;-54
2022/04/26 04:54:14;;;;;;;6.22;4.20;;;22.60;99.90;;;;;;5094100;28;20395;-53
2022/04/26 04:56:40;;;;;;;7.07;4.60;;;22.60;99.90;;;;;;5094037;28;20020;-53
2022/04/26 04:59:07;;;;;;;6.63;4.05;;;22.60;99.90;;;;;;5093486;28;20104;-53
2022/04/26 05:01:32;;;;;;;5.75;4.00;;;22.60;99.90;;;;;;5092667;28;20075;-53
2022/04/26 05:03:58;;;;;;;7.03;3.95;;;22.60;99.90;;;;;;5092739;28;20056;-52
2022/04/26 05:06:24;;;;;;;6.65;3.90;;;22.60;99.90;;;;;;5093927;28;20035;-53
2022/04/26 05:08:50;;;;;;;4.85;3.42;;;22.60;99.90;;;;;;5093863;28;20032;-53
2022/04/26 05:11:16;;;;;;;5.32;4.07;;;22.60;99.90;;;;;;5093613;28;20028;-55
2022/04/26 05:13:41;;;;;;;6.38;4.57;;;22.60;99.90;;;;;;5093790;28;20106;-53
2022/04/26 05:16:07;;;;;;;4.90;3.75;;;22.60;99.90;;;;;;5093855;28;20024;-53
2022/04/26 05:18:33;;;;;;;6.32;4.22;;;22.60;99.90;;;;;;5093780;28;20042;-53
2022/04/26 05:20:59;;;;;;;5.88;4.15;;;22.60;99.90;;;;;;5093419;28;20479;-53
2022/04/26 05:26:09;;;;;;;4.95;3.60;;;22.60;99.90;;;;;;5093472;28;20035;-53
2022/04/26 05:28:35;;;;;;;4.78;3.30;;;22.50;99.90;;;;;;5093571;28;20028;-54
2022/04/26 05:31:01;;;;;;;4.82;3.47;;;22.60;99.90;;;;;;5093241;28;20024;-53
2022/04/26 05:33:27;;;;;;;5.53;3.72;;;22.60;99.90;;;;;;5093438;28;20375;-52
2022/04/26 05:35:53;;;;;;;6.68;3.58;;;22.60;99.90;;;;;;5093273;28;20070;-52
2022/04/26 05:38:19;;;;;;;4.47;3.40;;;22.60;99.90;;;;;;5093399;28;20024;-52
2022/04/26 05:40:45;;;;;;;5.30;3.78;;;22.50;99.90;;;;;;5093137;28;20023;-51
2022/04/26 05:43:11;;;;;;;4.28;3.58;;;22.50;99.90;;;;;;5093082;28;20150;-53
2022/04/26 05:45:37;;;;;;;4.72;3.25;;;22.60;99.90;;;;;;5093188;28;20032;-55
2022/04/26 05:48:05;;;;;;;4.13;3.55;;;22.50;99.90;;;;;;5092979;28;20486;-55
2022/04/26 05:50:30;;;;;;;;;;;22.60;99.90;;;;;;5093345;28;20061;-52
2022/04/26 05:52:56;;;;;;;4.93;3.58;;;22.50;99.90;;;;;;5092809;28;19904;-52
2022/04/26 05:55:22;;;;;;;5.35;3.75;;;22.60;99.90;;;;;;5092780;28;20020;-54
2022/04/26 05:58:07;;;;;;;5.68;3.97;;;22.60;99.90;;;;;;5092823;28;20043;-53
2022/04/26 06:00:33;;;;;;;5.55;3.72;;;22.60;99.90;;;;;;5092502;28;20135;-53
2022/04/26 06:02:59;;;;;;;5.28;3.63;;;22.60;99.90;;;;;;5092710;28;20099;-52
2022/04/26 06:05:25;;;;;;;5.45;3.88;;;22.60;99.90;;;;;;5092551;28;20036;-52
2022/04/26 06:10:37;;;;;;;5.60;3.75;;;22.60;99.90;;;;;;5091588;28;20119;-58
2022/04/26 06:13:03;;;;;;;5.53;3.78;;;22.60;99.90;;;;;;5092600;28;20016;-51
2022/04/26 06:18:13;;;;;;;6.35;3.85;;;22.60;99.90;;;;;;5092358;28;20032;-52
2022/04/26 06:20:38;;;;;;;6.15;4.50;;;22.50;99.90;;;;;;5092475;28;20028;-52
2022/04/26 06:23:05;;;;;;;5.05;3.60;;;22.60;99.90;;;;;;5092111;28;20395;-52
2022/04/26 06:25:36;;;;;;;6.82;3.72;;;22.60;99.90;;;;;;5091982;28;20145;-51
2022/04/26 06:28:03;;;;;;;5.30;4.15;;;22.60;99.90;;;;;;5092244;28;20028;-52
2022/04/26 06:30:29;;;;;;;5.03;3.63;;;22.60;99.90;;;;;;5092016;28;20215;-52
2022/04/26 06:32:55;;;;;;;4.63;3.70;;;22.60;99.90;;;;;;5092102;28;20100;-52
2022/04/26 06:35:20;;;;;;;5.05;3.42;;;22.60;99.90;;;;;;5092130;28;20625;-52
2022/04/26 06:38:05;;;;;;;7.35;4.18;;;22.60;99.90;;;;;;5091885;28;20024;-52
2022/04/26 06:40:30;;;;;;;4.97;3.47;;;22.60;99.90;;;;;;5091829;28;20081;-52
2022/04/26 06:42:58;;;;;;;7.22;3.47;;;22.60;99.90;;;;;;5091789;28;20017;-52
2022/04/26 06:45:24;;;;;;;5.90;4.18;;;22.60;99.90;;;;;;5091739;28;20494;-51
2022/04/26 06:47:49;;;;;;;9.35;4.30;;;22.60;99.90;;;;;;5091819;28;20055;-52
2022/04/26 06:50:16;;;;;;;6.28;4.00;;;22.60;99.90;;;;;;5090519;28;20024;-52
2022/04/26 06:52:42;;;;;;;5.35;4.20;;;22.60;99.90;;;;;;5092105;28;20020;-52
2022/04/26 06:55:08;;;;;;;6.70;4.65;;;22.60;99.90;;;;;;5091975;28;20030;-52
2022/04/26 06:57:36;;;;;;;7.50;4.43;;;22.60;99.90;;;;;;5091843;28;20023;-52
2022/04/26 07:00:07;;;;;;;6.30;4.45;;;22.60;99.90;;;;;;5091534;28;20463;-52
2022/04/26 07:02:33;;;;;;;6.45;4.70;;;22.60;99.90;;;;;;5091603;28;20639;-52
2022/04/26 07:04:59;;;;;;;7.65;4.82;;;22.60;99.90;;;;;;5091445;28;20498;-52
2022/04/26 07:07:25;;;;;;;7.68;5.20;;;22.60;99.90;;;;;;5091535;28;20502;-52
2022/04/26 07:09:51;;;;;;;6.45;4.57;;;22.60;99.90;;;;;;5091385;28;20038;-52
2022/04/26 07:12:16;;;;;;;7.18;4.78;;;22.70;99.90;;;;;;5091537;28;20465;-52
2022/04/26 07:14:42;;;;;;;7.97;5.35;;;22.70;99.90;;;;;;5091542;28;20459;-52
2022/04/26 07:17:09;;;;;;;6.88;4.95;;;22.70;99.90;;;;;;5091349;28;20024;-52
2022/04/26 07:19:35;;;;;;;5.63;4.55;;;22.60;99.90;;;;;;5091482;28;20421;-52
2022/04/26 07:22:03;;;;;;;7.90;5.03;;;22.70;99.90;;;;;;5091058;28;20394;-52
2022/04/26 07:24:31;;;;;;;6.50;4.75;;;22.70;99.90;;;;;;5091190;28;20047;-52
2022/04/26 07:26:56;;;;;;;;;;;22.70;99.90;;;;;;5091723;28;20359;-52
2022/04/26 07:29:43;;;;;;;5.78;4.80;;;22.70;99.90;;;;;;5091401;28;20431;-52
2022/04/26 07:32:09;;;;;;;7.07;4.78;;;22.70;99.90;;;;;;5091401;28;20462;-52
2022/04/26 07:34:35;;;;;;;7.10;4.50;;;22.70;99.90;;;;;;5089865;28;20127;-52
2022/04/26 07:37:04;;;;;;;6.53;5.00;;;22.70;99.90;;;;;;5091190;28;20095;-52
2022/04/26 07:39:33;;;;;;;6.15;4.60;;;22.70;99.90;;;;;;5091045;28;20471;-53
2022/04/26 07:42:00;;;;;;;7.18;4.50;;;22.70;99.90;;;;;;5091290;28;20055;-52
2022/04/26 07:44:26;;;;;;;7.28;4.72;;;22.70;99.90;;;;;;5091139;28;20494;-52
2022/04/26 07:46:53;;;;;;;5.47;4.07;;;22.80;99.90;;;;;;5091335;28;20398;-52
2022/04/26 07:49:21;;;;;;;6.13;4.63;;;22.80;99.90;;;;;;5091133;28;20028;-52
2022/04/26 07:51:47;;;;;;;7.10;4.60;;;22.80;99.90;;;;;;5091111;28;20113;-52
2022/04/26 07:54:16;;;;;;;7.40;4.57;;;22.80;99.90;;;;;;5091221;28;20021;-52
2022/04/26 07:56:42;;;;;;;6.78;4.45;;;22.80;99.90;;;;;;5091350;28;20152;-52
2022/04/26 07:59:08;;;;;;;5.95;4.38;;;22.80;99.90;;;;;;5090954;28;20036;-53
2022/04/26 08:01:35;;;;;;;6.50;4.78;;;22.80;99.90;;;;;;5090758;28;20075;-52
2022/04/26 08:04:01;;;;;;;4.63;3.78;;;22.90;99.90;;;;;;5091005;28;20023;-52
2022/04/26 08:06:27;;;;;;;4.63;3.85;;;22.90;99.90;;;;;;5091028;28;20444;-53
2022/04/26 08:08:54;;;;;;;6.03;4.82;;;22.90;99.90;;;;;;5091042;28;20024;-53
2022/04/26 08:11:23;;;;;;;5.18;4.20;;;22.90;99.90;;;;;;5090933;28;20028;-52
2022/04/26 08:13:49;;;;;;;6.25;4.38;;;22.90;99.90;;;;;;5089490;28;20025;-52
2022/04/26 08:16:15;;;;;;;6.57;4.40;;;22.90;99.90;;;;;;5091053;28;20103;-52
2022/04/26 08:18:41;;;;;;;7.18;4.32;;;22.90;99.90;;;;;;5090785;28;20107;-53
2022/04/26 08:21:07;;;;;;;6.90;4.75;;;23.00;99.90;;;;;;5090780;28;20021;-52
2022/04/26 08:27:22;;;;;;;6.13;3.87;;;22.90;99.90;;;;;;5090854;28;20492;-52
2022/04/26 08:29:14;;;;;;;5.72;4.07;;;23.00;99.90;;;;;;5089990;28;20030;-52
2022/04/26 08:31:40;;;;;;;6.95;4.03;;;23.00;99.90;;;;;;5090660;28;20043;-52
2022/04/26 08:34:06;;;;;;;7.32;4.43;;;23.00;99.90;;;;;;5091864;28;20044;-52
2022/04/26 08:36:34;;;;;;;5.50;4.10;;;23.00;99.90;;;;;;5094328;28;20030;-52
2022/04/26 08:39:00;;;;;;;6.35;3.92;;;23.00;99.90;;;;;;5094399;28;20027;-52
2022/04/26 08:41:26;;;;;;;5.97;4.57;;;23.00;99.90;;;;;;5094449;28;20028;-52
2022/04/26 08:43:52;;;;;;;5.03;4.18;;;23.00;99.90;;;;;;5094286;28;20319;-52
2022/04/26 08:46:18;;;;;;;6.85;4.65;;;23.00;99.90;;;;;;5094323;28;20028;-53
2022/04/26 08:51:29;;;;;;;6.28;4.57;;;23.00;99.90;;;;;;5094075;28;20031;-55
2022/04/26 08:54:14;;;;;;;6.20;4.35;;;23.10;99.90;;;;;;5094123;28;20559;-53
2022/04/26 08:56:40;;;;;;;7.40;4.95;;;23.10;99.90;;;;;;5093857;28;20032;-53
2022/04/26 08:59:05;;;;;;;6.32;4.32;;;23.10;99.90;;;;;;5094063;28;20024;-53
2022/04/26 09:01:31;;;;;;;5.68;4.03;;;23.10;99.90;;;;;;5093762;28;20048;-53
2022/04/26 09:04:01;;;;;;;5.10;4.20;;;23.10;99.90;;;;;;5093739;28;20028;-53
2022/04/26 09:06:30;;;;;;;7.38;4.35;;;23.10;99.90;;;;;;5093907;28;20039;-54
2022/04/26 09:09:16;;;;;;;6.38;3.50;;;23.10;99.90;;;;;;5092362;28;20043;-51
2022/04/26 09:11:43;;;;;;;5.93;4.18;;;23.10;99.90;;;;;;5093727;28;20027;-51
2022/04/26 09:14:29;;;;;;;6.60;4.25;;;23.10;99.90;;;;;;5093637;28;20020;-51
2022/04/26 09:17:07;;;;;;;6.13;3.85;;;23.10;99.90;;;;;;5093640;28;20032;-51
2022/04/26 09:19:59;;;;;;;5.43;4.20;;;23.20;99.90;;;;;;5093730;28;20028;-52
2022/04/26 09:22:27;;;;;;;5.60;3.85;;;23.10;99.90;;;;;;5090575;28;20070;-52
2022/04/26 09:25:07;;;;;;;7.28;4.65;;;23.10;99.90;;;;;;5093508;28;20039;-52
2022/04/26 09:27:38;;;;;;;5.30;4.07;;;23.20;99.90;;;;;;5093608;28;20031;-52
2022/04/26 09:30:12;;;;;;;6.50;3.97;;;23.20;99.90;;;;;;5093365;28;20471;-52
2022/04/26 09:32:49;;;;;;;4.63;3.55;;;23.20;99.90;;;;;;5093401;28;20032;-52
2022/04/26 09:35:23;;;;;;;8.63;4.50;;;23.10;99.90;;;;;;5093292;28;20494;-52
2022/04/26 09:38:10;;;;;;;8.30;4.22;;;23.20;99.90;;;;;;5093539;28;20024;-52
2022/04/26 09:40:39;;;;;;;6.05;4.82;;;23.20;99.90;;;;;;5093135;28;20020;-52
2022/04/26 09:43:16;;;;;;;7.45;5.72;;;23.20;99.90;;;;;;5091958;28;20103;-52
2022/04/26 09:45:56;;;;;;;;;;;23.20;99.90;;;;;;5093208;28;20039;-52
2022/04/26 09:48:30;;;;;;;11.13;5.43;;;23.20;99.90;;;;;;5093159;28;20248;-52
2022/04/26 09:50:57;;;;;;;6.55;4.40;;;23.30;99.90;;;;;;5092788;28;20027;-53
2022/04/26 09:53:26;;;;;;;6.25;4.55;;;23.30;99.90;;;;;;5093065;28;20024;-52
2022/04/26 09:55:56;;;;;;;8.45;4.57;;;23.30;99.90;;;;;;5092758;28;20028;-52
2022/04/26 09:58:24;;;;;;;7.25;5.13;;;23.30;99.90;;;;;;5092961;28;20100;-52
2022/04/26 10:00:51;;;;;;;8.50;5.82;;;23.30;99.90;;;;;;5092863;28;20044;-53
2022/04/26 10:03:23;;;;;;;8.18;5.57;;;23.30;99.90;;;;;;5092946;28;20031;-52
2022/04/26 10:05:50;;;;;;;9.18;5.55;;;23.30;99.90;;;;;;5091691;28;20110;-52
2022/04/26 10:08:18;;;;;;;8.15;5.38;;;23.30;99.90;;;;;;5092610;28;20091;-53
2022/04/26 10:10:44;;;;;;;7.72;5.18;;;23.30;99.90;;;;;;5092425;28;20432;-52
2022/04/26 10:13:32;;;;;;;7.50;5.90;;;23.30;99.90;;;;;;5092351;28;20032;-53
2022/04/26 10:16:19;;;;;;;7.35;5.47;;;23.40;99.90;;;;;;5092377;28;20380;-52
2022/04/26 10:18:47;;;;;;;8.88;5.80;;;23.40;99.90;;;;;;5092487;28;20411;-52
2022/04/26 10:24:20;;;;;;;;;;;23.40;99.90;;;;;;5092721;28;20123;-52
2022/04/26 10:26:48;;;;;;;9.47;6.30;;;23.40;99.90;;;;;;5092266;28;19991;-52
2022/04/26 10:29:16;;;;;;;8.45;5.78;;;23.50;99.90;;;;;;5092131;28;21072;-52
2022/04/26 10:31:49;;;;;;;9.98;6.20;;;23.50;99.90;;;;;;5092141;28;20050;-52
2022/04/26 10:34:24;;;;;;;9.43;7.00;;;23.50;99.90;;;;;;5092096;28;20479;-52
2022/04/26 10:36:51;;;;;;;10.82;7.85;;;23.50;99.90;;;;;;5092219;28;20031;-53
2022/04/26 10:39:32;;;;;;;10.40;7.18;;;23.60;99.90;;;;;;5091984;28;20035;-52
2022/04/26 10:41:59;;;;;;;14.35;9.40;;;23.60;99.90;;;;;;5092079;28;20012;-52
2022/04/26 10:44:27;;;;;;;11.40;9.35;;;23.60;99.90;;;;;;5090588;28;20032;-51
2022/04/26 10:46:57;;;;;;;12.50;9.05;;;23.70;99.90;;;;;;5091996;28;20056;-53
2022/04/26 10:49:26;;;;;;;11.75;8.45;;;23.70;99.90;;;;;;5092312;28;20023;-53
2022/04/26 10:51:56;;;;;;;12.57;9.40;;;23.70;99.90;;;;;;5092030;28;20162;-52
2022/04/26 10:54:58;;;;;;;12.65;9.10;;;23.80;99.90;;;;;;5092159;28;20039;-53
2022/04/26 10:57:26;;;;;;;16.40;10.32;;;23.80;99.90;;;;;;5091264;28;20028;-52
2022/04/26 10:59:56;;;;;;;13.90;9.73;;;23.80;99.90;;;;;;5091630;28;20052;-53
2022/04/26 11:02:25;;;;;;;13.18;9.50;;;23.80;99.90;;;;;;5091697;28;20035;-52
2022/04/26 11:05:26;;;;;;;13.40;9.65;;;23.80;99.90;;;;;;5091695;28;20453;-52
2022/04/26 11:07:52;;;;;;;13.65;10.57;;;23.90;99.90;;;;;;5078319;28;20387;-52
2022/04/26 11:10:25;;;;;;;15.10;11.20;;;23.90;99.90;;;;;;5091705;28;20028;-52
2022/04/26 11:12:51;;;;;;;15.27;11.60;;;23.90;99.90;;;;;;5091619;28;20024;-52
2022/04/26 11:15:22;;;;;;;17.05;12.85;;;23.90;99.90;;;;;;5091492;28;20433;-53
2022/04/26 11:17:50;;;;;;;19.58;13.65;;;24.00;99.90;;;;;;5091382;28;20032;-52
2022/04/26 11:20:24;;;;;;;17.15;13.27;;;24.00;99.90;;;;;;5091329;28;20420;-52
2022/04/26 11:22:52;;;;;;;19.48;14.25;;;24.00;99.90;;;;;;5091376;28;20028;-53
2022/04/26 11:28:23;;;;;;;18.58;13.05;;;24.00;99.90;;;;;;5091730;28;20089;-53
2022/04/26 11:30:55;;;;;;;16.55;12.57;;;24.00;99.90;;;;;;5091376;28;20016;-53
2022/04/26 11:33:25;;;;;;;18.90;13.82;;;24.00;99.90;;;;;;5091356;28;20093;-52
2022/04/26 11:35:53;;;;;;;18.00;13.30;;;24.00;99.90;;;;;;5091237;28;20016;-52
2022/04/26 11:38:19;;;;;;;18.45;13.68;;;24.10;99.90;;;;;;5091227;28;20028;-53
2022/04/26 11:40:54;;;;;;;18.25;12.85;;;24.10;99.90;;;;;;5091282;28;20054;-53
2022/04/26 11:43:24;;;;;;;16.98;12.43;;;24.00;99.90;;;;;;5091019;28;20103;-52
2022/04/26 11:45:55;;;;;;;15.88;12.38;;;24.10;99.90;;;;;;5091096;28;20028;-52
2022/04/26 11:48:29;;;;;;;16.77;12.00;;;24.10;99.90;;;;;;5090907;28;20424;-52
2022/04/26 11:50:57;;;;;;;17.65;12.43;;;24.10;99.90;;;;;;5091461;28;20379;-53
2022/04/26 11:53:28;;;;;;;18.48;13.30;;;24.10;99.90;;;;;;5091248;28;20024;-52
2022/04/26 11:55:56;;;;;;;16.27;12.13;;;24.10;99.90;;;;;;5091239;28;20110;-52
2022/04/26 11:58:27;;;;;;;15.00;11.48;;;24.10;99.90;;;;;;5091012;28;20033;-52
2022/04/26 12:01:02;;;;;;;17.35;11.35;;;24.10;99.90;;;;;;5090858;28;20119;-52
2022/04/26 12:03:43;;;;;;;16.65;12.57;;;24.10;99.90;;;;;;5091068;28;20035;-52
2022/04/26 12:06:10;;;;;;;14.80;11.30;;;24.10;99.90;;;;;;5090906;28;20548;-52
2022/04/26 12:08:46;;;;;;;14.00;10.75;;;24.10;99.90;;;;;;5091581;28;20056;-52
2022/04/26 12:11:26;;;;;;;16.25;11.38;;;24.10;99.90;;;;;;5094926;28;20044;-53
2022/04/26 12:13:59;;;;;;;14.75;10.48;;;24.20;99.90;;;;;;5094762;28;20032;-52
2022/04/26 12:16:25;;;;;;;14.20;10.93;;;24.20;99.90;;;;;;5094932;28;20051;-52
2022/04/26 12:18:56;;;;;;;14.15;10.63;;;24.20;99.90;;;;;;5094939;28;20103;-52
2022/04/26 12:21:26;;;;;;;14.13;10.10;;;24.20;99.90;;;;;;5094799;28;20017;-52
2022/04/26 12:24:12;;;;;;;14.68;10.50;;;24.10;99.90;;;;;;5094693;28;20490;-52
2022/04/26 12:26:50;;;;;;;15.23;10.98;;;24.10;99.90;;;;;;5094702;28;20057;-53
2022/04/26 12:29:15;;;;;;;17.67;10.88;;;24.10;99.90;;;;;;5094631;28;20024;-53
2022/04/26 12:31:48;;;;;;;13.60;11.02;;;24.10;99.90;;;;;;5094511;28;20525;-54
2022/04/26 12:37:17;;;;;;;15.90;11.32;;;24.10;99.90;;;;;;5094776;28;20031;-54
2022/04/26 12:39:48;;;;;;;14.23;9.88;;;24.10;99.90;;;;;;5094263;28;20028;-53
2022/04/26 12:42:28;;;;;;;13.60;10.18;;;24.10;99.90;;;;;;5094343;28;20098;-53
2022/04/26 12:44:56;;;;;;;12.55;10.65;;;24.10;99.90;;;;;;5094246;28;20147;-53
2022/04/26 12:50:28;;;;;;;13.88;10.73;;;24.00;99.90;;;;;;5094120;28;20077;-53
2022/04/26 12:53:08;;;;;;;16.70;11.10;;;24.00;99.90;;;;;;5094090;28;20042;-53
2022/04/26 12:55:42;;;;;;;14.93;11.38;;;24.00;99.90;;;;;;5094099;28;20028;-53
2022/04/26 12:58:18;;;;;;;15.70;11.07;;;24.00;99.90;;;;;;5094171;28;20020;-53
2022/04/26 13:00:50;;;;;;;17.05;11.15;;;24.00;99.90;;;;;;5093874;28;20067;-53
2022/04/26 13:03:17;;;;;;;14.57;10.27;;;24.00;99.90;;;;;;5093766;28;20035;-53
2022/04/26 13:06:04;;;;;;;15.93;11.95;;;23.90;99.90;;;;;;5093902;28;20039;-53
2022/04/26 13:08:29;;;;;;;13.65;10.68;;;23.90;99.90;;;;;;5093935;28;20688;-53
2022/04/26 13:10:55;;;;;;;14.00;10.98;;;23.90;99.90;;;;;;5093847;28;20132;-53
2022/04/26 13:13:21;;;;;;;13.32;10.68;;;23.90;99.90;;;;;;5093792;28;20028;-53
2022/04/26 13:15:47;;;;;;;12.32;9.30;;;23.80;99.90;;;;;;5093479;28;20036;-53
2022/04/26 13:18:15;;;;;;;12.65;9.70;;;23.80;99.90;;;;;;5093561;28;20024;-53
2022/04/26 13:20:43;;;;;;;12.77;10.00;;;23.80;99.90;;;;;;5093082;28;20043;-53
2022/04/26 13:23:09;;;;;;;10.35;8.63;;;23.80;99.90;;;;;;5093694;28;20028;-53
2022/04/26 13:25:35;;;;;;;13.85;9.50;;;23.80;99.90;;;;;;5093575;28;20059;-53
2022/04/26 13:28:05;;;;;;;10.90;7.47;;;23.80;99.90;;;;;;5093928;28;20316;-53
2022/04/26 13:30:30;;;;;;;11.05;8.30;;;23.80;99.90;;;;;;5092479;28;20468;-53
2022/04/26 13:32:56;;;;;;;9.75;7.85;;;23.80;99.90;;;;;;5093434;28;20106;-53
2022/04/26 13:35:23;;;;;;;11.48;8.23;;;23.70;99.90;;;;;;5093282;28;20131;-53
2022/04/26 13:37:50;;;;;;;10.70;7.82;;;23.70;99.90;;;;;;5093378;28;20098;-53
2022/04/26 13:40:15;;;;;;;12.63;8.63;;;23.70;99.90;;;;;;5093370;28;20024;-53
2022/04/26 13:42:41;;;;;;;12.25;8.93;;;23.70;99.90;;;;;;5093185;28;20496;-53
2022/04/26 13:45:07;;;;;;;13.93;8.50;;;23.70;99.90;;;;;;5087311;28;20126;-53
2022/04/26 13:47:34;;;;;;;17.30;8.98;;;23.70;99.90;;;;;;5085670;28;20444;-53
2022/04/26 13:50:00;;;;;;;12.43;7.63;;;23.70;99.90;;;;;;5092855;28;20027;-52
2022/04/26 13:52:26;;;;;;;13.18;7.80;;;23.70;99.90;;;;;;5092314;28;20486;-52
2022/04/26 13:54:52;;;;;;;10.85;7.38;;;23.70;99.90;;;;;;5085454;28;20020;-53
2022/04/26 13:57:18;;;;;;;11.60;6.55;;;23.70;99.90;;;;;;5075429;28;20029;-52
2022/04/26 13:59:45;;;;;;;11.18;6.13;;;23.70;99.90;;;;;;5090694;28;20552;-52
2022/04/26 14:02:11;;;;;;;13.20;6.15;;;23.70;99.90;;;;;;5084886;28;20024;-51
2022/04/26 14:04:37;;;;;;;8.90;6.05;;;23.70;99.90;;;;;;5091220;28;20025;-51
2022/04/26 14:07:04;;;;;;;8.65;5.63;;;23.70;99.90;;;;;;5092182;28;20028;-51
2022/04/26 14:09:30;;;;;;;7.57;4.25;;;23.80;99.90;;;;;;5092289;28;20073;-52
2022/04/26 14:11:56;;;;;;;10.18;4.18;;;23.80;99.90;;;;;;5084902;28;20079;-53
2022/04/26 14:22:36;;;;;;;5.45;3.75;;;23.80;99.90;;;;;;5091150;28;20116;-52
2022/04/26 14:25:05;;;;;;;8.63;3.45;;;23.80;99.90;;;;;;5089505;28;20040;-52
2022/04/26 14:27:32;;;;;;;7.00;3.58;;;23.80;99.90;;;;;;5088507;28;20048;-52
2022/04/26 14:29:59;;;;;;;3.67;2.80;;;23.80;99.90;;;;;;5088668;28;20110;-54
2022/04/26 14:32:24;;;;;;;6.18;3.10;;;23.80;99.90;;;;;;5084012;28;20027;-53
2022/04/26 14:34:51;;;;;;;7.30;3.38;;;23.80;99.90;;;;;;5071558;28;20029;-52
2022/04/26 14:37:17;;;;;;;5.53;2.60;;;23.80;99.90;;;;;;5079084;28;20098;-52
2022/04/26 14:39:43;;;;;;;5.95;3.10;;;23.80;99.90;;;;;;5091436;28;20034;-53
2022/04/26 14:42:28;;;;;;;7.00;3.03;;;23.80;99.90;;;;;;5091776;28;20076;-52
2022/04/26 14:44:54;;;;;;;6.00;3.20;;;23.80;99.90;;;;;;5081961;28;20318;-53
2022/04/26 14:47:20;;;;;;;6.07;3.00;;;23.80;99.90;;;;;;5086338;28;20031;-52
2022/04/26 14:49:47;;;;;;;5.70;2.45;;;23.70;99.90;;;;;;5091511;28;20027;-52
2022/04/26 14:52:16;;;;;;;6.50;3.58;;;23.70;99.90;;;;;;5085322;28;20510;-54
2022/04/26 14:54:42;;;;;;;7.70;2.38;;;23.70;99.90;;;;;;5087977;28;20383;-52
2022/04/26 14:57:08;;;;;;;6.57;2.85;;;23.70;99.90;;;;;;5077750;28;20024;-52
2022/04/26 14:59:39;;;;;;;4.43;2.15;;;23.70;99.90;;;;;;5074283;28;20020;-52
2022/04/26 15:02:05;;;;;;;6.10;2.45;;;23.70;99.90;;;;;;5072431;28;20077;-53
2022/04/26 15:04:32;;;;;;;5.30;2.90;;;23.70;99.90;;;;;;5070565;28;20032;-53
2022/04/26 15:07:16;;;;;;;5.47;1.88;;;23.70;99.90;;;;;;5070057;28;20438;-53
2022/04/26 15:09:42;;;;;;;7.30;1.80;;;23.70;99.90;;;;;;5068894;28;20089;-52
2022/04/26 15:17:40;;;;;;;4.88;2.28;;;23.70;99.90;;;;;;5084405;28;20077;-51
2022/04/26 15:20:25;;;;;;;2.97;2.10;;;23.70;99.90;;;;;;5074643;28;20040;-52
2022/04/26 15:22:51;;;;;;;4.47;2.22;;;23.70;99.90;;;;;;5074608;28;20029;-51
2022/04/26 15:25:17;;;;;;;7.82;4.05;;;23.70;99.90;;;;;;5068918;28;20032;-52
2022/04/26 15:27:42;;;;;;;13.70;3.58;;;23.70;99.90;;;;;;5072951;28;20491;-52
2022/04/26 15:30:11;;;;;;;15.98;3.85;;;23.70;99.90;;;;;;5088679;28;20024;-53
2022/04/26 15:32:37;;;;;;;11.68;4.82;;;23.70;99.90;;;;;;5080830;28;20016;-52
2022/04/26 15:35:21;;;;;;;12.55;5.50;;;23.80;99.90;;;;;;5091117;28;20024;-52
2022/04/26 15:37:48;;;;;;;12.40;5.18;;;23.80;99.90;;;;;;5087751;28;20047;-52
2022/04/26 15:40:13;;;;;;;10.55;5.13;;;23.80;99.90;;;;;;5075950;28;20076;-52
2022/04/26 15:42:39;;;;;;;11.15;5.47;;;23.80;99.90;;;;;;5070933;28;20024;-52
2022/04/26 15:45:05;;;;;;;11.65;5.40;;;23.80;99.90;;;;;;5072810;28;20090;-52
2022/04/26 15:47:33;;;;;;;12.60;6.75;;;23.80;99.90;;;;;;5072863;28;20487;-53
2022/04/26 15:49:59;;;;;;;14.05;6.43;;;23.80;99.90;;;;;;5073174;28;20074;-52
2022/04/26 15:52:25;;;;;;;13.43;5.43;;;23.80;99.90;;;;;;5073473;28;20472;-52
2022/04/26 15:54:51;;;;;;;11.35;6.43;;;23.80;99.90;;;;;;5072943;28;20028;-53
2022/04/26 15:57:17;;;;;;;10.00;6.20;;;23.80;99.90;;;;;;5073164;28;20016;-53
2022/04/26 15:59:43;;;;;;;11.63;6.20;;;23.80;99.90;;;;;;5072756;28;20044;-53
2022/04/26 16:02:09;;;;;;;11.00;5.82;;;23.80;99.90;;;;;;5075279;28;20079;-53
2022/04/26 16:04:35;;;;;;;11.75;5.72;;;23.80;99.90;;;;;;5073099;28;20171;-53
2022/04/26 16:07:01;;;;;;;9.32;5.32;;;23.80;99.90;;;;;;5072953;28;20476;-52
2022/04/26 16:20:28;;;;;;;10.90;5.28;;;23.80;99.90;;;;;;5072849;28;20040;-53
2022/04/26 16:22:58;;;;;;;9.68;6.15;;;23.80;99.90;;;;;;5072168;28;20056;-53
2022/04/26 16:25:25;;;;;;;9.95;6.13;;;23.80;99.90;;;;;;5073301;28;20036;-51
2022/04/26 16:27:51;;;;;;;11.13;6.60;;;23.80;99.90;;;;;;5072413;28;20039;-52
2022/04/26 16:30:17;;;;;;;12.80;6.00;;;23.80;99.90;;;;;;5072039;28;20336;-53
2022/04/26 16:32:43;;;;;;;9.50;6.13;;;23.80;99.90;;;;;;5072581;28;20031;-52
2022/04/26 16:35:13;;;;;;;10.50;6.55;;;23.80;99.90;;;;;;5072496;28;20048;-52
2022/04/26 16:37:40;;;;;;;11.20;6.47;;;23.80;99.90;;;;;;5072415;28;20439;-52
2022/04/26 16:40:07;;;;;;;12.55;7.25;;;23.80;99.90;;;;;;5074287;28;20013;-52
2022/04/26 16:42:33;;;;;;;10.88;7.20;;;23.80;99.90;;;;;;5073321;28;20024;-52
2022/04/26 16:44:59;;;;;;;16.02;8.48;;;23.80;99.90;;;;;;5071680;28;20448;-52
2022/04/26 16:47:25;;;;;;;12.32;7.65;;;23.80;99.90;;;;;;5071830;28;20027;-51
2022/04/26 16:49:51;;;;;;;9.50;7.55;;;23.80;99.90;;;;;;5072065;28;20024;-52
2022/04/26 16:52:17;;;;;;;10.90;8.10;;;23.80;99.90;;;;;;5071803;28;20085;-52
2022/04/26 16:54:42;;;;;;;21.38;10.07;;;23.80;99.90;;;;;;5070845;28;20027;-52
2022/04/26 16:57:08;;;;;;;19.45;9.65;;;23.80;99.90;;;;;;5072172;28;20024;-52
2022/04/26 16:59:34;;;;;;;18.13;9.77;;;23.80;99.90;;;;;;5072133;28;20025;-51
2022/04/26 17:02:00;;;;;;;15.70;9.82;;;23.80;99.90;;;;;;5073827;28;20667;-52
2022/04/26 17:04:26;;;;;;;21.50;10.45;;;23.70;99.90;;;;;;5078896;28;20055;-52
2022/04/26 17:06:52;;;;;;;16.10;8.65;;;23.80;99.90;;;;;;5079672;28;20588;-53
2022/04/26 17:09:20;;;;;;;24.30;10.35;;;23.80;99.90;;;;;;5093058;28;20119;-53
2022/04/26 17:11:47;;;;;;;21.17;9.98;;;23.70;99.90;;;;;;5080395;28;20586;-53
2022/04/26 17:14:14;;;;;;;13.88;9.32;;;23.80;99.90;;;;;;5073302;28;20336;-53
2022/04/26 17:16:42;;;;;;;16.95;9.30;;;23.70;99.90;;;;;;5085324;28;20466;-53
2022/04/26 17:19:08;;;;;;;16.92;8.75;;;23.80;99.90;;;;;;5092300;28;20184;-53
2022/04/26 17:21:34;;;;;;;19.88;9.75;;;23.70;99.90;;;;;;5093279;28;20141;-53
2022/04/26 17:24:04;;;;;;;16.63;8.90;;;23.80;99.90;;;;;;5093074;28;20224;-53